Time,TemperatureF,DewpointF,PressureIn,WindDirection,WindDirectionDegrees,WindSpeedMPH,WindSpeedGustMPH,Humidity,HourlyPrecipIn,Conditions,Clouds,dailyrainin,SolarRadiationWatts/m^2,SoftwareType,DateUTC
2013-06-29 00:02:00,70.9,68.8,29.56,West,264,4.0,4.0,93,0.00,,,0.00,0,Wunderground v.1.15,2013-06-29 04:02:00,
2013-06-29 00:04:00,70.8,69.0,29.56,West,264,4.0,4.0,94,0.00,,,0.00,0,Wunderground v.1.15,2013-06-29 04:04:00,
2013-06-29 00:08:00,70.8,69.0,29.56,West,263,4.0,4.0,94,0.00,,,0.00,0,Wunderground v.1.15,2013-06-29 04:08:00,
2013-06-29 00:10:00,70.8,69.0,29.56,West,263,4.0,6.0,94,0.00,,,0.00,0,Wunderground v.1.15,2013-06-29 04:10:00,
2013-06-29 00:12:00,70.7,68.6,29.56,West,261,4.0,6.0,93,0.00,,,0.00,0,Wunderground v.1.15,2013-06-29 04:12:00,
2013-06-29 00:18:00,70.6,68.8,29.55,West,259,5.0,6.0,94,0.00,,,0.00,0,Wunderground v.1.15,2013-06-29 04:18:00,
2013-06-29 00:24:00,70.5,68.7,29.55,West,259,4.0,5.0,94,0.00,,,0.00,0,Wunderground v.1.15,2013-06-29 04:24:00,
2013-06-29 00:30:00,70.5,68.7,29.55,West,259,3.0,4.0,94,0.00,,,0.00,0,Wunderground v.1.15,2013-06-29 04:30:00,
2013-06-29 00:36:00,70.6,68.8,29.54,West,259,3.0,6.0,94,0.00,,,0.00,0,Wunderground v.1.15,2013-06-29 04:36:00,
2013-06-29 00:42:00,70.7,68.9,29.54,West,259,3.0,3.0,94,0.00,,,0.00,0,Wunderground v.1.15,2013-06-29 04:42:00,
2013-06-29 00:48:00,70.7,68.9,29.53,West,259,4.0,6.0,94,0.00,,,0.00,0,Wunderground v.1.15,2013-06-29 04:48:00,
2013-06-29 00:56:00,70.7,68.9,29.54,WSW,252,4.0,6.0,94,0.00,,,0.00,0,Wunderground v.1.15,2013-06-29 04:56:00,
2013-06-29 01:02:00,70.8,69.0,29.53,WSW,248,4.0,6.0,94,0.00,,,0.00,0,Wunderground v.1.15,2013-06-29 05:02:00,
2013-06-29 01:08:00,70.9,69.1,29.53,WSW,248,4.0,6.0,94,0.00,,,0.00,0,Wunderground v.1.15,2013-06-29 05:08:00,
2013-06-29 01:16:00,71.0,69.2,29.53,WSW,244,4.0,5.0,94,0.00,,,0.00,0,Wunderground v.1.15,2013-06-29 05:16:00,
2013-06-29 01:22:00,71.0,68.9,29.53,WSW,237,4.0,5.0,93,0.00,,,0.00,0,Wunderground v.1.15,2013-06-29 05:22:00,
2013-06-29 01:28:00,71.0,68.9,29.52,SW,234,4.0,5.0,93,0.00,,,0.00,0,Wunderground v.1.15,2013-06-29 05:28:00,
2013-06-29 01:34:00,71.2,69.1,29.52,SW,233,4.0,5.0,93,0.00,,,0.00,0,Wunderground v.1.15,2013-06-29 05:34:00,
2013-06-29 01:40:00,71.4,69.3,29.51,SW,233,2.0,2.0,93,0.00,,,0.00,0,Wunderground v.1.15,2013-06-29 05:40:00,
2013-06-29 01:46:00,71.6,69.5,29.51,SW,233,2.0,5.0,93,0.00,,,0.00,0,Wunderground v.1.15,2013-06-29 05:46:00,
2013-06-29 01:52:00,71.7,69.3,29.51,SW,233,3.0,4.0,92,0.00,,,0.00,0,Wunderground v.1.15,2013-06-29 05:52:00,
2013-06-29 01:58:00,71.5,69.1,29.51,SW,233,3.0,4.0,92,0.00,,,0.00,0,Wunderground v.1.15,2013-06-29 05:58:00,
2013-06-29 02:06:00,71.2,68.8,29.51,SW,233,3.0,4.0,92,0.00,,,0.00,0,Wunderground v.1.15,2013-06-29 06:06:00,
2013-06-29 02:12:00,71.1,68.3,29.52,SW,233,2.0,3.0,91,0.00,,,0.00,0,Wunderground v.1.15,2013-06-29 06:12:00,
2013-06-29 02:18:00,71.0,68.2,29.51,SW,233,2.0,4.0,91,0.00,,,0.00,0,Wunderground v.1.15,2013-06-29 06:18:00,
2013-06-29 02:26:00,71.1,68.3,29.52,SW,232,4.0,6.0,91,0.00,,,0.00,0,Wunderground v.1.15,2013-06-29 06:26:00,
2013-06-29 02:32:00,71.6,68.8,29.52,SW,227,4.0,8.0,91,0.00,,,0.00,0,Wunderground v.1.15,2013-06-29 06:32:00,
2013-06-29 02:38:00,71.9,69.1,29.52,SW,227,4.0,8.0,91,0.00,,,0.00,0,Wunderground v.1.15,2013-06-29 06:38:00,
2013-06-29 02:45:00,72.3,69.5,29.52,SW,226,3.0,4.0,91,0.00,,,0.00,0,Wunderground v.1.15,2013-06-29 06:45:00,
2013-06-29 02:51:00,72.6,69.8,29.52,SW,226,4.0,4.0,91,0.00,,,0.00,0,Wunderground v.1.15,2013-06-29 06:51:00,
2013-06-29 02:58:00,72.7,69.9,29.53,SW,225,4.0,6.0,91,0.00,,,0.00,0,Wunderground v.1.15,2013-06-29 06:58:00,
2013-06-29 03:04:00,72.6,69.5,29.53,SW,225,3.0,5.0,90,0.00,,,0.00,0,Wunderground v.1.15,2013-06-29 07:04:00,
2013-06-29 03:10:00,72.6,69.5,29.52,SW,225,3.0,4.0,90,0.00,,,0.00,0,Wunderground v.1.15,2013-06-29 07:10:00,
2013-06-29 03:16:00,72.7,69.6,29.53,SW,225,3.0,5.0,90,0.00,,,0.00,0,Wunderground v.1.15,2013-06-29 07:16:00,
2013-06-29 03:22:00,72.7,69.6,29.53,SW,223,4.0,4.0,90,0.00,,,0.00,0,Wunderground v.1.15,2013-06-29 07:22:00,
2013-06-29 03:28:00,72.8,69.7,29.54,SW,223,4.0,6.0,90,0.00,,,0.00,0,Wunderground v.1.15,2013-06-29 07:28:00,
2013-06-29 03:34:00,72.8,69.7,29.54,SW,225,4.0,6.0,90,0.00,,,0.00,0,Wunderground v.1.15,2013-06-29 07:34:00,
2013-06-29 03:40:00,72.7,69.6,29.54,SSW,210,6.0,7.0,90,0.00,,,0.00,0,Wunderground v.1.15,2013-06-29 07:40:00,
2013-06-29 03:46:00,72.6,69.5,29.54,SSW,207,5.0,7.0,90,0.00,,,0.00,0,Wunderground v.1.15,2013-06-29 07:46:00,
2013-06-29 03:52:00,72.6,69.5,29.54,SSW,211,5.0,7.0,90,0.00,,,0.00,0,Wunderground v.1.15,2013-06-29 07:52:00,
2013-06-29 03:58:00,72.7,69.6,29.55,SW,223,6.0,7.0,90,0.00,,,0.00,0,Wunderground v.1.15,2013-06-29 07:58:00,
2013-06-29 04:04:00,72.7,69.6,29.56,SSW,213,6.0,11.0,90,0.00,,,0.00,0,Wunderground v.1.15,2013-06-29 08:04:00,
2013-06-29 04:10:00,72.8,69.7,29.56,WSW,247,7.0,7.0,90,0.00,,,0.00,0,Wunderground v.1.15,2013-06-29 08:10:00,
2013-06-29 04:16:00,73.0,69.9,29.56,SSW,205,7.0,10.0,90,0.00,,,0.00,0,Wunderground v.1.15,2013-06-29 08:16:00,
2013-06-29 04:21:00,73.1,70.0,29.57,SW,223,7.0,14.0,90,0.00,,,0.00,0,Wunderground v.1.15,2013-06-29 08:21:00,
2013-06-29 04:28:00,73.3,70.2,29.56,SSW,211,7.0,14.0,90,0.00,,,0.00,0,Wunderground v.1.15,2013-06-29 08:28:00,
2013-06-29 04:36:00,73.4,70.3,29.56,SW,218,5.0,7.0,90,0.00,,,0.00,0,Wunderground v.1.15,2013-06-29 08:36:00,
2013-06-29 04:42:00,73.5,70.4,29.57,SW,215,5.0,5.0,90,0.00,,,0.01,0,Wunderground v.1.15,2013-06-29 08:42:00,
2013-06-29 04:48:00,73.6,70.8,29.58,SW,225,5.0,5.0,91,0.00,,,0.01,0,Wunderground v.1.15,2013-06-29 08:48:00,
2013-06-29 04:54:00,73.6,70.8,29.59,SW,220,5.0,8.0,91,0.00,,,0.01,0,Wunderground v.1.15,2013-06-29 08:54:00,
2013-06-29 05:00:00,73.7,70.9,29.58,SW,214,5.0,7.0,91,0.73,,,0.03,0,Wunderground v.1.15,2013-06-29 09:00:00,
2013-06-29 05:06:00,73.7,70.9,29.58,SW,218,7.0,14.0,91,0.15,,,0.06,0,Wunderground v.1.15,2013-06-29 09:06:00,
2013-06-29 05:12:00,73.6,71.1,29.58,SW,219,8.0,9.0,92,0.10,,,0.07,0,Wunderground v.1.15,2013-06-29 09:12:00,
2013-06-29 05:18:00,73.5,71.0,29.58,SW,235,7.0,11.0,92,0.06,,,0.07,0,Wunderground v.1.15,2013-06-29 09:18:00,
2013-06-29 05:24:00,73.4,70.9,29.58,SSW,211,7.0,8.0,92,0.04,,,0.08,0,Wunderground v.1.15,2013-06-29 09:24:00,
2013-06-29 05:30:00,73.4,70.9,29.58,SSW,208,6.0,6.0,92,0.04,,,0.08,0,Wunderground v.1.15,2013-06-29 09:30:00,
2013-06-29 05:36:00,73.4,71.3,29.58,SW,219,5.0,6.0,93,0.05,,,0.09,0,Wunderground v.1.15,2013-06-29 09:36:00,
2013-06-29 05:42:00,73.4,71.3,29.59,SW,220,5.0,10.0,93,0.05,,,0.09,0,Wunderground v.1.15,2013-06-29 09:42:00,
2013-06-29 05:48:00,73.4,71.3,29.59,SW,214,6.0,10.0,93,0.05,,,0.09,0,Wunderground v.1.15,2013-06-29 09:48:00,
2013-06-29 05:56:00,73.3,71.2,29.59,SW,231,6.0,7.0,93,0.00,,,0.09,0,Wunderground v.1.15,2013-06-29 09:56:00,
2013-06-29 06:01:00,73.3,71.2,29.59,SW,215,6.0,6.0,93,0.00,,,0.10,0,Wunderground v.1.15,2013-06-29 10:01:00,
2013-06-29 06:08:00,73.3,71.2,29.59,SW,217,5.0,6.0,93,0.00,,,0.10,9,Wunderground v.1.15,2013-06-29 10:08:00,
2013-06-29 06:16:00,73.4,71.6,29.59,SW,219,3.0,5.0,94,0.00,,,0.10,14,Wunderground v.1.15,2013-06-29 10:16:00,
2013-06-29 06:22:00,73.4,71.6,29.58,SW,219,2.0,4.0,94,0.00,,,0.10,26,Wunderground v.1.15,2013-06-29 10:22:00,
2013-06-29 06:28:00,73.5,71.7,29.58,SW,225,3.0,6.0,94,0.00,,,0.10,23,Wunderground v.1.15,2013-06-29 10:28:00,
2013-06-29 06:34:00,73.5,71.7,29.58,SW,225,3.0,4.0,94,0.00,,,0.10,19,Wunderground v.1.15,2013-06-29 10:34:00,
2013-06-29 06:40:00,73.5,71.7,29.58,SW,225,3.0,3.0,94,0.00,,,0.10,30,Wunderground v.1.15,2013-06-29 10:40:00,
2013-06-29 06:46:00,73.5,71.7,29.58,SW,231,4.0,6.0,94,0.00,,,0.10,30,Wunderground v.1.15,2013-06-29 10:46:00,
2013-06-29 06:52:00,73.5,71.7,29.58,SW,225,4.0,5.0,94,0.00,,,0.10,33,Wunderground v.1.15,2013-06-29 10:52:00,
2013-06-29 06:58:00,73.5,71.7,29.58,SW,226,3.0,5.0,94,0.00,,,0.10,46,Wunderground v.1.15,2013-06-29 10:58:00,
2013-06-29 07:04:00,73.5,71.7,29.58,WSW,244,4.0,4.0,94,0.00,,,0.10,37,Wunderground v.1.15,2013-06-29 11:04:00,
2013-06-29 07:10:00,73.6,71.8,29.58,SW,228,4.0,7.0,94,0.00,,,0.10,62,Wunderground v.1.15,2013-06-29 11:10:00,
2013-06-29 07:16:00,73.6,71.8,29.58,SW,224,5.0,7.0,94,0.00,,,0.10,91,Wunderground v.1.15,2013-06-29 11:16:00,
2013-06-29 07:22:00,73.8,72.0,29.58,SW,223,3.0,5.0,94,0.00,,,0.10,214,Wunderground v.1.15,2013-06-29 11:22:00,
2013-06-29 07:28:00,73.9,72.1,29.58,SW,223,3.0,6.0,94,0.00,,,0.10,221,Wunderground v.1.15,2013-06-29 11:28:00,
2013-06-29 07:34:00,74.2,72.4,29.59,WSW,238,4.0,7.0,94,0.00,,,0.10,181,Wunderground v.1.15,2013-06-29 11:34:00,
2013-06-29 07:40:00,74.3,72.5,29.59,WSW,249,4.0,7.0,94,0.00,,,0.10,144,Wunderground v.1.15,2013-06-29 11:40:00,
2013-06-29 07:46:00,74.4,72.2,29.60,SW,224,5.0,7.0,93,0.00,,,0.10,142,Wunderground v.1.15,2013-06-29 11:46:00,
2013-06-29 07:52:00,74.5,72.3,29.60,SW,233,4.0,6.0,93,0.00,,,0.10,97,Wunderground v.1.15,2013-06-29 11:52:00,
2013-06-29 07:58:00,74.5,72.3,29.60,SW,233,5.0,6.0,93,0.00,,,0.10,98,Wunderground v.1.15,2013-06-29 11:58:00,
2013-06-29 08:04:00,74.5,72.0,29.60,SW,234,5.0,6.0,92,0.00,,,0.10,93,Wunderground v.1.15,2013-06-29 12:04:00,
2013-06-29 08:10:00,74.3,71.8,29.60,SSW,209,5.0,5.0,92,0.00,,,0.10,93,Wunderground v.1.15,2013-06-29 12:10:00,
2013-06-29 08:16:00,74.2,71.4,29.61,SSW,209,7.0,7.0,91,0.00,,,0.10,107,Wunderground v.1.15,2013-06-29 12:16:00,
2013-06-29 08:22:00,74.2,71.4,29.60,SW,222,6.0,7.0,91,0.00,,,0.10,134,Wunderground v.1.15,2013-06-29 12:22:00,
2013-06-29 08:28:00,74.1,71.0,29.60,SSW,207,6.0,10.0,90,0.00,,,0.10,114,Wunderground v.1.15,2013-06-29 12:28:00,
2013-06-29 08:34:00,74.3,71.2,29.60,SW,228,6.0,8.0,90,0.00,,,0.10,105,Wunderground v.1.15,2013-06-29 12:34:00,
2013-06-29 08:40:00,74.3,70.8,29.61,SW,230,6.0,7.0,89,0.00,,,0.10,118,Wunderground v.1.15,2013-06-29 12:40:00,
2013-06-29 08:46:00,74.5,71.0,29.61,WSW,240,5.0,7.0,89,0.00,,,0.10,153,Wunderground v.1.15,2013-06-29 12:46:00,
2013-06-29 08:52:00,74.6,71.1,29.61,SSW,201,5.0,7.0,89,0.00,,,0.10,188,Wunderground v.1.15,2013-06-29 12:52:00,
2013-06-29 08:58:00,74.7,70.9,29.62,SW,225,5.0,7.0,88,0.00,,,0.10,181,Wunderground v.1.15,2013-06-29 12:58:00,
2013-06-29 09:04:00,74.8,71.0,29.61,SW,227,6.0,9.0,88,0.00,,,0.10,272,Wunderground v.1.15,2013-06-29 13:04:00,
2013-06-29 09:10:00,74.9,71.1,29.61,SW,228,6.0,7.0,88,0.00,,,0.10,232,Wunderground v.1.15,2013-06-29 13:10:00,
2013-06-29 09:16:00,75.4,71.6,29.62,SW,229,6.0,9.0,88,0.00,,,0.10,211,Wunderground v.1.15,2013-06-29 13:16:00,
2013-06-29 09:22:00,75.4,71.3,29.61,SW,221,6.0,6.0,87,0.00,,,0.10,348,Wunderground v.1.15,2013-06-29 13:22:00,
2013-06-29 09:28:00,75.8,72.0,29.62,SW,236,6.0,10.0,88,0.00,,,0.10,330,Wunderground v.1.15,2013-06-29 13:28:00,
2013-06-29 09:36:00,76.1,71.6,29.62,SW,228,8.0,12.0,86,0.00,,,0.10,392,Wunderground v.1.15,2013-06-29 13:36:00,
2013-06-29 09:42:00,76.5,72.3,29.62,West,259,8.0,13.0,87,0.00,,,0.10,380,Wunderground v.1.15,2013-06-29 13:42:00,
2013-06-29 09:47:00,76.8,71.9,29.62,West,261,8.0,16.0,85,0.00,,,0.10,896,Wunderground v.1.15,2013-06-29 13:47:00,
2013-06-29 09:56:00,77.9,72.3,29.62,SSW,212,9.0,11.0,83,0.00,,,0.10,492,Wunderground v.1.15,2013-06-29 13:56:00,
2013-06-29 10:02:00,77.8,71.9,29.62,WSW,248,9.0,9.0,82,0.00,,,0.10,441,Wunderground v.1.15,2013-06-29 14:02:00,
2013-06-29 10:08:00,77.5,71.9,29.62,SW,229,9.0,16.0,83,0.00,,,0.10,330,Wunderground v.1.15,2013-06-29 14:08:00,
2013-06-29 10:14:00,77.3,72.1,29.63,WSW,240,8.0,9.0,84,0.00,,,0.10,287,Wunderground v.1.15,2013-06-29 14:14:00,
2013-06-29 10:20:00,77.2,72.0,29.63,SW,229,7.0,7.0,84,0.00,,,0.10,441,Wunderground v.1.15,2013-06-29 14:20:00,
2013-06-29 10:26:00,77.2,71.6,29.63,WSW,238,7.0,7.0,83,0.00,,,0.10,123,Wunderground v.1.15,2013-06-29 14:26:00,
2013-06-29 10:32:00,76.9,71.7,29.63,SW,216,7.0,7.0,84,0.00,,,0.10,88,Wunderground v.1.15,2013-06-29 14:32:00,
2013-06-29 10:38:00,76.6,71.7,29.63,SW,230,5.0,7.0,85,0.00,,,0.10,90,Wunderground v.1.15,2013-06-29 14:38:00,
2013-06-29 10:46:00,76.3,71.5,29.63,SW,234,7.0,7.0,85,0.00,,,0.10,155,Wunderground v.1.15,2013-06-29 14:46:00,
2013-06-29 10:51:00,76.3,71.8,29.63,SW,228,7.0,8.0,86,0.00,,,0.10,163,Wunderground v.1.15,2013-06-29 14:51:00,
2013-06-29 10:58:00,76.3,71.8,29.63,SW,234,7.0,8.0,86,0.00,,,0.10,167,Wunderground v.1.15,2013-06-29 14:58:00,
2013-06-29 11:06:00,76.6,71.7,29.64,West,275,5.0,8.0,85,0.00,,,0.10,100,Wunderground v.1.15,2013-06-29 15:06:00,
2013-06-29 11:12:00,76.6,71.7,29.64,SW,236,6.0,10.0,85,0.00,,,0.10,107,Wunderground v.1.15,2013-06-29 15:12:00,
2013-06-29 11:18:00,76.5,72.0,29.64,SW,227,5.0,10.0,86,0.00,,,0.10,134,Wunderground v.1.15,2013-06-29 15:18:00,
2013-06-29 11:26:00,76.6,72.1,29.64,SW,219,5.0,8.0,86,0.00,,,0.10,169,Wunderground v.1.15,2013-06-29 15:26:00,
2013-06-29 11:32:00,76.7,72.2,29.64,SSW,211,5.0,8.0,86,0.00,,,0.10,151,Wunderground v.1.15,2013-06-29 15:32:00,
2013-06-29 11:37:00,76.8,71.9,29.64,SW,232,5.0,11.0,85,0.00,,,0.10,199,Wunderground v.1.15,2013-06-29 15:37:00,
2013-06-29 11:46:00,76.9,72.0,29.63,SW,236,6.0,7.0,85,0.00,,,0.10,204,Wunderground v.1.15,2013-06-29 15:46:00,
2013-06-29 11:52:00,77.2,72.3,29.63,SW,230,4.0,6.0,85,0.00,,,0.10,271,Wunderground v.1.15,2013-06-29 15:52:00,
2013-06-29 11:58:00,77.6,72.4,29.63,SW,222,4.0,6.0,84,0.00,,,0.10,192,Wunderground v.1.15,2013-06-29 15:58:00,
2013-06-29 12:06:00,77.6,72.4,29.63,SW,229,5.0,5.0,84,0.00,,,0.10,250,Wunderground v.1.15,2013-06-29 16:06:00,
2013-06-29 12:12:00,77.7,72.1,29.63,SW,234,5.0,5.0,83,0.00,,,0.10,394,Wunderground v.1.15,2013-06-29 16:12:00,
2013-06-29 12:18:00,78.2,72.6,29.63,WSW,247,5.0,6.0,83,0.00,,,0.10,496,Wunderground v.1.15,2013-06-29 16:18:00,
2013-06-29 12:20:00,78.6,73.0,29.63,WSW,247,4.0,4.0,83,0.00,,,0.10,496,Wunderground v.1.15,2013-06-29 16:20:00,
2013-06-29 12:26:00,79.5,72.8,29.63,WSW,246,3.0,6.0,80,0.00,,,0.10,631,Wunderground v.1.15,2013-06-29 16:26:00,
2013-06-29 12:32:00,80.1,73.4,29.63,SW,219,3.0,6.0,80,0.00,,,0.10,513,Wunderground v.1.15,2013-06-29 16:32:00,
2013-06-29 12:38:00,80.3,72.8,29.63,SSW,207,5.0,9.0,78,0.00,,,0.10,751,Wunderground v.1.15,2013-06-29 16:38:00,
2013-06-29 12:44:00,81.2,72.9,29.62,SW,223,5.0,8.0,76,0.00,,,0.10,1129,Wunderground v.1.15,2013-06-29 16:44:00,
2013-06-29 12:50:00,81.6,73.3,29.62,SW,216,5.0,5.0,76,0.00,,,0.10,1042,Wunderground v.1.15,2013-06-29 16:50:00,
2013-06-29 12:56:00,82.7,74.0,29.62,SW,216,4.0,5.0,75,0.00,,,0.10,981,Wunderground v.1.15,2013-06-29 16:56:00,
2013-06-29 13:02:00,83.1,73.5,29.62,South,189,4.0,4.0,73,0.00,,,0.10,299,Wunderground v.1.15,2013-06-29 17:02:00,
2013-06-29 13:08:00,79.1,71.3,29.63,SSE,158,6.0,13.0,77,0.00,,,0.10,1086,Wunderground v.1.15,2013-06-29 17:08:00,
2013-06-29 13:14:00,76.6,70.7,29.63,SSE,156,9.0,12.0,82,0.00,,,0.10,946,Wunderground v.1.15,2013-06-29 17:14:00,
2013-06-29 13:20:00,75.3,70.5,29.63,SSE,155,10.0,10.0,85,0.00,,,0.10,1039,Wunderground v.1.15,2013-06-29 17:20:00,
2013-06-29 13:26:00,75.3,70.8,29.63,SSE,154,8.0,10.0,86,0.00,,,0.10,1062,Wunderground v.1.15,2013-06-29 17:26:00,
2013-06-29 13:32:00,76.1,71.3,29.63,SSE,153,5.0,6.0,85,0.00,,,0.10,1009,Wunderground v.1.15,2013-06-29 17:32:00,
2013-06-29 13:38:00,77.4,71.5,29.63,SSE,160,4.0,6.0,82,0.00,,,0.10,1065,Wunderground v.1.15,2013-06-29 17:38:00,
2013-06-29 13:44:00,77.3,71.4,29.63,SSE,163,4.0,6.0,82,0.00,,,0.10,1041,Wunderground v.1.15,2013-06-29 17:44:00,
2013-06-29 13:50:00,76.8,71.2,29.63,SSE,155,5.0,6.0,83,0.00,,,0.10,1049,Wunderground v.1.15,2013-06-29 17:50:00,
2013-06-29 13:56:00,76.5,70.9,29.63,SSE,168,5.0,6.0,83,0.00,,,0.10,663,Wunderground v.1.15,2013-06-29 17:56:00,
2013-06-29 14:02:00,76.5,71.3,29.63,SSE,162,4.0,6.0,84,0.00,,,0.10,951,Wunderground v.1.15,2013-06-29 18:02:00,
2013-06-29 14:08:00,76.0,70.8,29.63,SSE,157,5.0,8.0,84,0.00,,,0.10,239,Wunderground v.1.15,2013-06-29 18:08:00,
2013-06-29 14:16:00,76.5,71.3,29.63,SW,215,4.0,5.0,84,0.00,,,0.10,940,Wunderground v.1.15,2013-06-29 18:16:00,
2013-06-29 14:22:00,76.7,71.1,29.63,SSW,205,5.0,6.0,83,0.00,,,0.10,963,Wunderground v.1.15,2013-06-29 18:22:00,
2013-06-29 14:28:00,76.8,71.2,29.63,South,178,4.0,6.0,83,0.00,,,0.10,1013,Wunderground v.1.15,2013-06-29 18:28:00,
2013-06-29 14:36:00,76.7,71.1,29.63,SSW,209,5.0,6.0,83,0.00,,,0.10,933,Wunderground v.1.15,2013-06-29 18:36:00,
2013-06-29 14:42:00,76.1,70.6,29.63,SW,214,6.0,6.0,83,0.00,,,0.10,171,Wunderground v.1.15,2013-06-29 18:42:00,
2013-06-29 14:48:00,76.2,71.4,29.63,SW,222,7.0,10.0,85,0.00,,,0.10,872,Wunderground v.1.15,2013-06-29 18:48:00,
2013-06-29 14:54:00,76.7,71.5,29.63,SW,221,7.0,10.0,84,0.00,,,0.10,930,Wunderground v.1.15,2013-06-29 18:54:00,
2013-06-29 15:00:00,76.7,71.1,29.63,SE,135,7.0,7.0,83,0.00,,,0.10,926,Wunderground v.1.15,2013-06-29 19:00:00,
2013-06-29 15:06:00,76.1,70.9,29.63,SW,214,6.0,7.0,84,0.00,,,0.10,835,Wunderground v.1.15,2013-06-29 19:06:00,
2013-06-29 15:12:00,75.9,71.1,29.63,SSW,213,5.0,8.0,85,0.00,,,0.10,823,Wunderground v.1.15,2013-06-29 19:12:00,
2013-06-29 15:18:00,76.0,71.2,29.63,SSE,158,5.0,8.0,85,0.00,,,0.10,814,Wunderground v.1.15,2013-06-29 19:18:00,
2013-06-29 15:24:00,76.1,71.3,29.64,SSW,207,6.0,8.0,85,0.00,,,0.10,833,Wunderground v.1.15,2013-06-29 19:24:00,
2013-06-29 15:30:00,76.0,70.8,29.64,SW,217,7.0,9.0,84,0.00,,,0.10,823,Wunderground v.1.15,2013-06-29 19:30:00,
2013-06-29 15:36:00,75.9,71.1,29.63,SSW,198,8.0,9.0,85,0.00,,,0.10,817,Wunderground v.1.15,2013-06-29 19:36:00,
2013-06-29 15:42:00,76.0,71.2,29.64,SSW,208,10.0,12.0,85,0.00,,,0.10,784,Wunderground v.1.15,2013-06-29 19:42:00,
2013-06-29 15:48:00,76.0,70.8,29.63,SSW,211,10.0,12.0,84,0.00,,,0.10,193,Wunderground v.1.15,2013-06-29 19:48:00,
2013-06-29 15:54:00,75.8,71.0,29.63,SW,232,9.0,9.0,85,0.00,,,0.10,763,Wunderground v.1.15,2013-06-29 19:54:00,
2013-06-29 16:00:00,75.3,70.5,29.64,South,177,9.0,9.0,85,0.00,,,0.10,756,Wunderground v.1.15,2013-06-29 20:00:00,
2013-06-29 16:06:00,74.8,70.3,29.64,SW,225,8.0,9.0,86,0.00,,,0.10,267,Wunderground v.1.15,2013-06-29 20:06:00,
2013-06-29 16:12:00,74.9,70.8,29.63,SW,217,8.0,13.0,87,0.00,,,0.10,756,Wunderground v.1.15,2013-06-29 20:12:00,
2013-06-29 16:18:00,75.5,71.0,29.64,SW,217,10.0,14.0,86,0.00,,,0.10,714,Wunderground v.1.15,2013-06-29 20:18:00,
2013-06-29 16:26:00,76.3,71.5,29.64,SSW,203,11.0,13.0,85,0.00,,,0.10,642,Wunderground v.1.15,2013-06-29 20:26:00,
2013-06-29 16:32:00,76.2,71.4,29.63,SW,221,11.0,11.0,85,0.00,,,0.10,664,Wunderground v.1.15,2013-06-29 20:32:00,
2013-06-29 16:38:00,76.3,71.1,29.64,SW,215,9.0,11.0,84,0.00,,,0.10,446,Wunderground v.1.15,2013-06-29 20:38:00,
2013-06-29 16:44:00,76.3,71.1,29.63,SSW,205,9.0,12.0,84,0.00,,,0.10,557,Wunderground v.1.15,2013-06-29 20:44:00,
2013-06-29 16:50:00,76.2,71.0,29.64,SW,226,9.0,13.0,84,0.00,,,0.10,292,Wunderground v.1.15,2013-06-29 20:50:00,
2013-06-29 16:56:00,76.0,71.2,29.64,SW,225,9.0,13.0,85,0.00,,,0.10,492,Wunderground v.1.15,2013-06-29 20:56:00,
2013-06-29 17:02:00,76.7,71.8,29.64,SW,223,9.0,9.0,85,0.00,,,0.10,534,Wunderground v.1.15,2013-06-29 21:02:00,
2013-06-29 17:07:00,78.8,73.2,29.64,SW,222,8.0,9.0,83,0.00,,,0.10,320,Wunderground v.1.15,2013-06-29 21:07:00,
2013-06-29 17:16:00,79.2,72.5,29.64,SW,223,7.0,8.0,80,0.00,,,0.10,461,Wunderground v.1.15,2013-06-29 21:16:00,
2013-06-29 17:22:00,78.5,72.5,29.64,SW,220,6.0,7.0,82,0.00,,,0.10,475,Wunderground v.1.15,2013-06-29 21:22:00,
2013-06-29 17:28:00,79.2,73.2,29.63,SW,219,7.0,7.0,82,0.00,,,0.10,489,Wunderground v.1.15,2013-06-29 21:28:00,
2013-06-29 17:36:00,78.9,73.3,29.63,SW,219,5.0,6.0,83,0.00,,,0.10,462,Wunderground v.1.15,2013-06-29 21:36:00,
2013-06-29 17:42:00,79.4,72.7,29.63,SSE,163,5.0,5.0,80,0.00,,,0.10,135,Wunderground v.1.15,2013-06-29 21:42:00,
2013-06-29 17:48:00,77.5,71.6,29.63,SSW,208,5.0,5.0,82,0.00,,,0.10,137,Wunderground v.1.15,2013-06-29 21:48:00,
2013-06-29 17:54:00,76.0,70.8,29.64,SW,214,5.0,6.0,84,0.00,,,0.10,320,Wunderground v.1.15,2013-06-29 21:54:00,
2013-06-29 18:00:00,75.4,70.6,29.64,SSW,200,4.0,4.0,85,0.00,,,0.10,269,Wunderground v.1.15,2013-06-29 22:00:00,
2013-06-29 18:06:00,75.7,71.2,29.64,SW,224,5.0,10.0,86,0.00,,,0.10,338,Wunderground v.1.15,2013-06-29 22:06:00,
2013-06-29 18:12:00,75.5,70.7,29.64,SW,225,7.0,13.0,85,0.00,,,0.10,334,Wunderground v.1.15,2013-06-29 22:12:00,
2013-06-29 18:18:00,75.3,70.5,29.64,SW,225,9.0,13.0,85,0.00,,,0.10,325,Wunderground v.1.15,2013-06-29 22:18:00,
2013-06-29 18:24:00,75.0,70.2,29.64,SW,229,10.0,11.0,85,0.00,,,0.10,325,Wunderground v.1.15,2013-06-29 22:24:00,
2013-06-29 18:30:00,74.9,70.4,29.64,SW,219,9.0,10.0,86,0.00,,,0.10,292,Wunderground v.1.15,2013-06-29 22:30:00,
2013-06-29 18:36:00,74.8,70.0,29.65,SW,218,8.0,12.0,85,0.00,,,0.10,151,Wunderground v.1.15,2013-06-29 22:36:00,
2013-06-29 18:42:00,74.6,70.1,29.65,SW,222,8.0,11.0,86,0.00,,,0.10,141,Wunderground v.1.15,2013-06-29 22:42:00,
2013-06-29 18:48:00,74.5,70.0,29.65,SW,219,9.0,11.0,86,0.00,,,0.10,120,Wunderground v.1.15,2013-06-29 22:48:00,
2013-06-29 18:54:00,74.2,70.1,29.66,SSW,213,10.0,12.0,87,0.00,,,0.10,132,Wunderground v.1.15,2013-06-29 22:54:00,
2013-06-29 19:00:00,74.1,70.0,29.66,SW,223,10.0,10.0,87,0.00,,,0.10,132,Wunderground v.1.15,2013-06-29 23:00:00,
2013-06-29 19:06:00,74.9,71.4,29.66,SW,219,7.0,10.0,89,0.00,,,0.10,128,Wunderground v.1.15,2013-06-29 23:06:00,
2013-06-29 19:12:00,76.5,72.7,29.67,SSW,213,6.0,7.0,88,0.00,,,0.10,120,Wunderground v.1.15,2013-06-29 23:12:00,
2013-06-29 19:18:00,77.7,72.8,29.67,SW,221,6.0,9.0,85,0.00,,,0.10,86,Wunderground v.1.15,2013-06-29 23:18:00,
2013-06-29 19:24:00,77.5,72.3,29.67,SW,216,7.0,9.0,84,0.00,,,0.10,90,Wunderground v.1.15,2013-06-29 23:24:00,
2013-06-29 19:30:00,78.0,73.1,29.67,SSW,213,7.0,7.0,85,0.00,,,0.10,118,Wunderground v.1.15,2013-06-29 23:30:00,
2013-06-29 19:36:00,78.5,73.3,29.67,SSW,201,7.0,12.0,84,0.00,,,0.10,98,Wunderground v.1.15,2013-06-29 23:36:00,
2013-06-29 19:41:00,78.7,72.7,29.67,SSW,212,8.0,8.0,82,0.00,,,0.10,74,Wunderground v.1.15,2013-06-29 23:41:00,
2013-06-29 19:48:00,78.9,72.6,29.68,SSW,211,9.0,9.0,81,0.00,,,0.10,88,Wunderground v.1.15,2013-06-29 23:48:00,
2013-06-29 19:56:00,79.0,71.9,29.68,SW,214,10.0,19.0,79,0.00,,,0.10,77,Wunderground v.1.15,2013-06-29 23:56:00,
2013-06-29 20:02:00,78.5,71.4,29.68,SSW,212,8.0,11.0,79,0.00,,,0.10,51,Wunderground v.1.15,2013-06-30 00:02:00,
2013-06-29 20:08:00,78.4,71.7,29.68,SSW,202,7.0,11.0,80,0.00,,,0.10,47,Wunderground v.1.15,2013-06-30 00:08:00,
2013-06-29 20:14:00,77.7,71.0,29.68,SSW,207,6.0,6.0,80,0.00,,,0.10,35,Wunderground v.1.15,2013-06-30 00:14:00,
2013-06-29 20:20:00,77.6,71.7,29.68,SW,216,6.0,6.0,82,0.00,,,0.10,23,Wunderground v.1.15,2013-06-30 00:20:00,
2013-06-29 20:25:00,77.7,72.1,29.68,SW,225,7.0,11.0,83,0.00,,,0.10,14,Wunderground v.1.15,2013-06-30 00:25:00,
2013-06-29 20:32:00,77.6,72.0,29.68,SW,217,7.0,9.0,83,0.00,,,0.10,9,Wunderground v.1.15,2013-06-30 00:32:00,
2013-06-29 20:38:00,77.6,72.0,29.68,SSW,207,7.0,9.0,83,0.00,,,0.10,0,Wunderground v.1.15,2013-06-30 00:38:00,
2013-06-29 20:44:00,77.5,71.9,29.68,SW,216,7.0,10.0,83,0.00,,,0.10,0,Wunderground v.1.15,2013-06-30 00:44:00,
2013-06-29 20:49:00,77.3,71.4,29.69,SSW,194,7.0,7.0,82,0.00,,,0.10,0,Wunderground v.1.15,2013-06-30 00:49:00,
2013-06-29 20:56:00,77.3,70.6,29.69,SW,223,9.0,10.0,80,0.00,,,0.10,0,Wunderground v.1.15,2013-06-30 00:56:00,
2013-06-29 21:02:00,77.4,70.7,29.69,SSW,192,9.0,9.0,80,0.00,,,0.10,0,Wunderground v.1.15,2013-06-30 01:02:00,
2013-06-29 21:07:00,77.4,71.1,29.69,SW,235,8.0,9.0,81,0.00,,,0.10,0,Wunderground v.1.15,2013-06-30 01:07:00,
2013-06-29 21:16:00,77.3,71.4,29.69,SW,215,7.0,9.0,82,0.00,,,0.10,0,Wunderground v.1.15,2013-06-30 01:16:00,
2013-06-29 21:22:00,77.3,71.4,29.69,SW,216,6.0,7.0,82,0.00,,,0.10,0,Wunderground v.1.15,2013-06-30 01:22:00,
2013-06-29 21:28:00,77.2,71.6,29.70,WSW,240,6.0,7.0,83,0.00,,,0.10,0,Wunderground v.1.15,2013-06-30 01:28:00,
2013-06-29 21:34:00,77.2,72.0,29.70,SSW,206,5.0,5.0,84,0.00,,,0.10,0,Wunderground v.1.15,2013-06-30 01:34:00,
2013-06-29 21:40:00,77.2,72.0,29.70,SSW,213,4.0,4.0,84,0.00,,,0.10,0,Wunderground v.1.15,2013-06-30 01:40:00,
2013-06-29 21:46:00,77.1,72.2,29.70,SW,214,4.0,5.0,85,0.00,,,0.10,0,Wunderground v.1.15,2013-06-30 01:46:00,
2013-06-29 21:52:00,77.0,72.1,29.70,SW,215,5.0,9.0,85,0.00,,,0.10,0,Wunderground v.1.15,2013-06-30 01:52:00,
2013-06-29 21:58:00,76.9,72.4,29.70,SSW,205,5.0,9.0,86,0.00,,,0.10,0,Wunderground v.1.15,2013-06-30 01:58:00,
2013-06-29 22:06:00,76.9,72.4,29.70,South,185,5.0,6.0,86,0.00,,,0.10,0,Wunderground v.1.15,2013-06-30 02:06:00,
2013-06-29 22:12:00,76.8,72.3,29.70,WSW,248,6.0,9.0,86,0.00,,,0.10,0,Wunderground v.1.15,2013-06-30 02:12:00,
2013-06-29 22:18:00,76.7,72.5,29.70,WSW,244,5.0,9.0,87,0.00,,,0.10,0,Wunderground v.1.15,2013-06-30 02:18:00,
2013-06-29 22:26:00,76.7,72.5,29.71,SSW,198,4.0,5.0,87,0.00,,,0.10,0,Wunderground v.1.15,2013-06-30 02:26:00,
2013-06-29 22:32:00,76.6,72.4,29.70,SSW,205,3.0,3.0,87,0.00,,,0.10,0,Wunderground v.1.15,2013-06-30 02:32:00,
2013-06-29 22:38:00,76.6,72.8,29.71,SW,219,5.0,6.0,88,0.00,,,0.10,0,Wunderground v.1.15,2013-06-30 02:38:00,
2013-06-29 22:44:00,76.6,72.8,29.71,SW,219,6.0,12.0,88,0.00,,,0.10,0,Wunderground v.1.15,2013-06-30 02:44:00,
2013-06-29 22:50:00,76.6,72.8,29.71,SSW,211,7.0,7.0,88,0.00,,,0.10,0,Wunderground v.1.15,2013-06-30 02:50:00,
2013-06-29 22:56:00,76.5,73.0,29.71,SSW,199,6.0,9.0,89,0.00,,,0.10,0,Wunderground v.1.15,2013-06-30 02:56:00,
2013-06-29 23:02:00,76.4,72.9,29.71,SSW,212,7.0,7.0,89,0.00,,,0.10,0,Wunderground v.1.15,2013-06-30 03:02:00,
2013-06-29 23:08:00,76.4,72.9,29.71,SSW,213,6.0,7.0,89,0.00,,,0.10,0,Wunderground v.1.15,2013-06-30 03:08:00,
2013-06-29 23:14:00,76.3,72.8,29.71,SSW,211,5.0,8.0,89,0.00,,,0.10,0,Wunderground v.1.15,2013-06-30 03:14:00,
2013-06-29 23:20:00,76.4,72.9,29.72,SSW,211,5.0,7.0,89,0.00,,,0.10,0,Wunderground v.1.15,2013-06-30 03:20:00,
2013-06-29 23:26:00,76.3,72.8,29.72,SW,215,5.0,7.0,89,0.00,,,0.10,0,Wunderground v.1.15,2013-06-30 03:26:00,
2013-06-29 23:32:00,76.2,72.7,29.72,SSW,205,5.0,7.0,89,0.00,,,0.10,0,Wunderground v.1.15,2013-06-30 03:32:00,
2013-06-29 23:38:00,76.2,73.1,29.72,SSW,213,6.0,8.0,90,0.00,,,0.10,0,Wunderground v.1.15,2013-06-30 03:38:00,
2013-06-29 23:44:00,76.1,73.0,29.73,SW,214,5.0,7.0,90,0.00,,,0.10,0,Wunderground v.1.15,2013-06-30 03:44:00,
2013-06-29 23:50:00,76.1,73.0,29.73,SW,214,4.0,4.0,90,0.00,,,0.10,0,Wunderground v.1.15,2013-06-30 03:50:00,
2013-06-29 23:56:00,76.0,72.9,29.73,SW,218,3.0,5.0,90,0.00,,,0.10,0,Wunderground v.1.15,2013-06-30 03:56:00,